CheckWX is a tool to help pilots better visualize weather data.  It is not intended as a substitute for an official pre-flight weather briefing.

16:34:07 UTC

KMLC TAF
Mc Alester Regional Airport
Mc Alester, Oklahoma, USA
KMLC 201404Z 2014/2112 00000KT 3SM BR SKC TEMPO 2014/2016 3/4SM BR VV002 FM201600 18009G17KT P6SM SCT250 FM210100 16010KT P6SM VCTS BKN060CB TEMPO 2102/2106 VRB15G30KT 3SM TSRA BKN025CB FM210700 33010KT P6SM BKN070

Oct-20@
14:00 UTC

Oct-20 @ 14:00 UTC

Oct-20@
16:00 UTC

Oct-20 @ 16:00 UTC

KMLC 201404Z 2014/2112 00000KT 3SM BR SKC

Expired

Conditions
Mist
Cloud Levels
  • Clear skies

Oct-20@
14:00 UTC

Oct-20 @ 14:00 UTC

Oct-20@
16:00 UTC

Oct-20 @ 16:00 UTC

TEMPO 2014/2016 3/4SM BR VV002

Expired

Conditions
Mist
Cloud Levels
  • Vertical visibility at 200' AGL

Oct-20@
16:00 UTC

Oct-20 @ 16:00 UTC

Oct-21@
01:00 UTC

Oct-21 @ 01:00 UTC

FM201600 18009G17KT P6SM SCT250

From

From Standard forecast or significant change

Wind
  • 180° at 9 KTS
  • {Gusting to 17 KTS
Cloud Levels
  • Scattered at 25,000' AGL

Oct-21@
01:00 UTC

Oct-21 @ 01:00 UTC

Oct-21@
07:00 UTC

Oct-21 @ 07:00 UTC

FM210100 16010KT P6SM VCTS BKN060CB

From

From Standard forecast or significant change

Wind
  • 160° at 10 KTS
Conditions
Area Thunderstorm
Cloud Levels
  • Broken at 6,000' AGL

Oct-21@
02:00 UTC

Oct-21 @ 02:00 UTC

Oct-21@
06:00 UTC

Oct-21 @ 06:00 UTC

TEMPO 2102/2106 VRB15G30KT 3SM TSRA BKN025CB

Temporary

Temporary Changes expected for less than half the time period

Wind
  • Variable at 15 KTS
  • {Gusting to 30 KTS
Conditions
Thunderstorm, Rain
Cloud Levels
  • Broken at 2,500' AGL

Oct-21@
07:00 UTC

Oct-21 @ 07:00 UTC

Oct-21@
12:00 UTC

Oct-21 @ 12:00 UTC

FM210700 33010KT P6SM BKN070

From

From Standard forecast or significant change

Wind
  • 330° at 10 KTS
Cloud Levels
  • Broken at 7,000' AGL